White Sulphur Springs, MT

10:32 AM MDT on May 30, 2015 (GMT -0600)
Helena Regional | | Change Station
CLOSE
Current Station
Airport
Location: Helena,
Elevation: 3865 ft
Nearby Weather Stations

Elev 3865 ft 46.60 °N, 111.99 °W | Updated 39 minutes ago

Mostly Cloudy
Mostly Cloudy
59 °F
Feels Like 59 °F
N
6
Wind Variable Wind from NW

Today
High -- | Low -- °F
--% Chance of Precip.
Yesterday
High -- | Low -- °F
Precip. -- in
5:35 AM 9:07 PM
Waxing Gibbous, 91% visible
Pressure 30.04 in
Visibility 10.0 miles
Clouds Mostly Cloudy 10000 ft
Dew Point 50 °F
Humidity 72%
Rainfall 0.00 in
Snow Depth Not available.
UV 3 out of 12
Pollen 7.30 out of 12
Air Quality Not available.
Flu Activity Sporadic
METAR KHLN 301553Z 31005KT 10SM BKN100 15/10 A3004 RMK AO2 SLP170 T01500100

More Conditions Fewer Conditions

Pressure 30.04 in
Visibility 10.0 miles
Clouds Mostly Cloudy 10000 ft
Dew Point 50 °F
Humidity 72%
Rainfall 0.00 in
Snow Depth Not available.
UV 3 out of 12
Pollen 7.30 out of 12
Air Quality Not available.
Flu Activity Sporadic
METAR KHLN 301553Z 31005KT 10SM BKN100 15/10 A3004 RMK AO2 SLP170 T01500100

More Conditions Fewer Conditions

10-Day Weather Forecast

Almanac

Astronomy

May. 30, 2015 Rise Set
Actual Time
Civil Twilight
Nautical Twilight
Astronomical Twilight
Moon
Length of Visible Light
Length of Day
Tomorrow will be .
, % of the Moon is Illuminated

Today's Extremes

State Highs State Lows

Community

WunderPhotos

Upload Photos

1,825,563 photos uploaded!

WunderBlogs® & News

Nearby

Air Quality

  Air Quality AQ Index Pollutant
Not available.

Snow Depth

Station Depth Elevation

Earthquake Activity

City Distance Mag. Time & Date
Minimum magnitude displayed is 2.5.

Coastal Water Temperatures

Place Temperature

Stations

Nearby Weather Stations

Station Location Temp. Windchill Dew Point Humidity Wind Precip. Elev Updated Type